createdAt,value
2023-02-14T00:01:53.646Z,16.63
2023-02-14T00:04:22.359Z,16.77
2023-02-14T00:06:50.830Z,16.50
2023-02-14T00:09:20.982Z,16.87
2023-02-14T00:11:49.500Z,16.57
2023-02-14T00:14:35.863Z,16.40
2023-02-14T00:17:04.600Z,16.73
2023-02-14T00:19:34.719Z,16.43
2023-02-14T00:22:03.673Z,17.33
2023-02-14T00:24:32.206Z,16.40
2023-02-14T00:27:00.689Z,17.77
2023-02-14T00:29:34.051Z,17.23
2023-02-14T00:32:02.596Z,16.80
2023-02-14T00:34:30.850Z,17.33
2023-02-14T00:37:10.134Z,16.67
2023-02-14T00:39:38.186Z,17.60
2023-02-14T00:42:06.302Z,16.90
2023-02-14T00:44:34.745Z,17.77
2023-02-14T00:47:03.083Z,18.03
2023-02-14T00:49:31.487Z,18.30
2023-02-14T00:51:59.514Z,17.43
2023-02-14T00:54:28.205Z,17.17
2023-02-14T00:56:56.644Z,16.33
2023-02-14T00:59:25.250Z,17.00
2023-02-14T01:01:53.664Z,18.07
2023-02-14T01:04:22.265Z,17.63
2023-02-14T01:06:50.642Z,17.50
2023-02-14T01:09:19.016Z,18.33
2023-02-14T01:11:48.737Z,15.50
2023-02-14T01:14:17.297Z,17.00
2023-02-14T01:19:31.834Z,17.90
2023-02-14T01:22:00.207Z,18.57
2023-02-14T01:24:28.671Z,17.57
2023-02-14T01:26:57.077Z,18.90
2023-02-14T01:29:25.541Z,19.23
2023-02-14T02:08:42.559Z,19.50
2023-02-14T02:11:11.460Z,19.80
2023-02-14T02:13:39.930Z,18.93
2023-02-14T02:16:41.421Z,19.43
2023-02-14T02:19:32.845Z,18.77
2023-02-14T02:22:45.686Z,19.80
2023-02-14T02:25:50.576Z,17.97
2023-02-14T02:28:58.497Z,19.67
2023-02-14T02:32:19.330Z,17.90
2023-02-14T02:35:08.266Z,17.63
2023-02-14T02:37:48.714Z,19.50
2023-02-14T02:40:40.839Z,19.03
2023-02-14T02:43:44.437Z,18.20
2023-02-14T02:46:49.139Z,19.33
2023-02-14T02:50:00.407Z,17.80
2023-02-14T02:52:48.063Z,18.77
2023-02-14T02:56:18.252Z,18.73
2023-02-14T02:59:04.878Z,17.83
2023-02-14T03:01:39.372Z,17.80
2023-02-14T03:04:30.363Z,19.10
2023-02-14T03:07:00.378Z,18.70
2023-02-14T03:09:28.733Z,17.33
2023-02-14T03:12:14.937Z,18.33
2023-02-14T03:14:58.293Z,18.37
2023-02-14T03:18:13.788Z,19.10
2023-02-14T03:20:41.172Z,19.17
2023-02-14T03:23:09.623Z,18.60
2023-02-14T03:25:48.929Z,18.80
2023-02-14T03:28:38.667Z,17.87
2023-02-14T03:31:32.449Z,18.27
2023-02-14T03:34:02.238Z,18.77
2023-02-14T03:36:43.738Z,17.47
2023-02-14T03:39:17.513Z,17.70
2023-02-14T03:41:53.061Z,17.33
2023-02-14T03:44:25.850Z,16.50
2023-02-14T03:47:02.697Z,16.73
2023-02-14T03:49:36.918Z,16.27
2023-02-14T03:52:06.956Z,16.53
2023-02-14T03:54:36.892Z,16.57
2023-02-14T03:57:30.039Z,16.60
2023-02-14T03:59:58.846Z,16.07
2023-02-14T04:02:37.279Z,15.60
2023-02-14T04:05:14.655Z,15.63
2023-02-14T04:07:57.702Z,14.47
2023-02-14T04:10:27.483Z,15.07
2023-02-14T04:12:55.962Z,15.87
2023-02-14T04:15:24.345Z,14.40
2023-02-14T04:18:10.337Z,16.37
2023-02-14T04:20:38.748Z,14.17
2023-02-14T04:23:07.170Z,15.07
2023-02-14T04:25:35.723Z,14.37
2023-02-14T04:28:04.155Z,15.50
2023-02-14T04:30:32.217Z,14.70
2023-02-14T04:33:00.673Z,15.10
2023-02-14T04:35:29.088Z,14.47
2023-02-14T04:37:57.569Z,14.17
2023-02-14T04:40:25.943Z,14.53
2023-02-14T04:42:54.379Z,14.17
2023-02-14T04:45:22.786Z,13.60
2023-02-14T04:47:51.197Z,14.07
2023-02-14T04:50:19.717Z,13.23
2023-02-14T04:52:48.102Z,14.10
2023-02-14T04:55:16.531Z,13.43
2023-02-14T04:57:44.978Z,14.40
2023-02-14T05:00:13.984Z,13.10
2023-02-14T05:02:42.377Z,14.13
2023-02-14T05:05:10.852Z,13.33
2023-02-14T05:07:39.292Z,13.87
2023-02-14T05:10:08.181Z,13.13
2023-02-14T05:12:36.326Z,13.70
2023-02-14T05:15:04.920Z,13.53
2023-02-14T05:17:33.816Z,14.03
2023-02-14T05:20:02.237Z,12.40
2023-02-14T05:22:30.621Z,13.60
2023-02-14T05:24:59.163Z,12.83
2023-02-14T05:27:27.593Z,13.10
2023-02-14T05:29:56.138Z,12.90
2023-02-14T05:32:24.570Z,12.77
2023-02-14T05:34:52.977Z,11.87
2023-02-14T05:37:21.418Z,12.43
2023-02-14T05:39:49.819Z,13.10
2023-02-14T05:42:18.199Z,13.27
2023-02-14T05:44:46.624Z,11.23
2023-02-14T05:47:15.127Z,12.20
2023-02-14T05:49:43.573Z,12.20
2023-02-14T05:52:11.965Z,12.07
2023-02-14T05:54:40.348Z,12.07
2023-02-14T05:57:08.761Z,12.73
2023-02-14T05:59:37.205Z,12.67
2023-02-14T06:02:05.689Z,12.37
2023-02-14T06:04:34.227Z,12.77
2023-02-14T06:07:02.870Z,13.50
2023-02-14T06:09:31.300Z,12.37
2023-02-14T06:11:59.963Z,12.70
2023-02-14T06:14:28.364Z,13.03
2023-02-14T06:16:56.808Z,13.87
2023-02-14T06:19:25.309Z,13.40
2023-02-14T06:21:53.785Z,13.60
2023-02-14T06:24:22.260Z,12.67
2023-02-14T06:26:50.624Z,13.57
2023-02-14T06:29:19.565Z,14.23
2023-02-14T06:31:48.147Z,14.53
2023-02-14T06:34:16.654Z,13.90
2023-02-14T06:36:45.096Z,14.33
2023-02-14T06:39:13.479Z,14.77
2023-02-14T06:41:42.059Z,13.57
2023-02-14T06:44:10.527Z,15.47
2023-02-14T06:46:39.022Z,14.70
2023-02-14T06:49:07.444Z,14.57
2023-02-14T06:51:35.796Z,15.60
2023-02-14T06:54:04.241Z,16.03
2023-02-14T06:56:32.684Z,14.10
2023-02-14T06:59:01.095Z,13.53
2023-02-14T07:01:29.837Z,15.23
2023-02-14T07:03:58.363Z,14.27
2023-02-14T07:06:26.963Z,13.53
2023-02-14T07:08:55.351Z,13.97
2023-02-14T07:11:23.818Z,14.00
2023-02-14T07:13:51.904Z,12.37
2023-02-14T07:16:20.371Z,13.17
2023-02-14T07:18:49.065Z,14.57
2023-02-14T07:21:17.513Z,15.07
2023-02-14T07:23:47.824Z,13.27
2023-02-14T07:26:18.365Z,14.00
2023-02-14T07:28:50.251Z,13.17
2023-02-14T07:31:19.904Z,13.07
2023-02-14T07:33:48.409Z,14.00
2023-02-14T07:36:18.777Z,13.43
2023-02-14T07:38:47.174Z,13.93
2023-02-14T07:41:15.744Z,13.43
2023-02-14T07:43:44.207Z,13.00
2023-02-14T07:46:12.747Z,13.97
2023-02-14T07:48:41.172Z,13.30
2023-02-14T07:51:09.706Z,13.07
2023-02-14T07:53:38.134Z,13.87
2023-02-14T07:56:06.762Z,13.63
2023-02-14T07:58:35.290Z,13.53
2023-02-14T08:01:03.717Z,12.57
2023-02-14T08:03:31.695Z,13.93
2023-02-14T08:06:00.128Z,13.00
2023-02-14T08:08:31.997Z,13.67
2023-02-14T08:11:00.980Z,13.90
2023-02-14T08:13:28.572Z,13.17
2023-02-14T08:16:09.620Z,12.40
2023-02-14T08:18:43.248Z,13.00
2023-02-14T08:21:12.541Z,12.90
2023-02-14T08:23:41.460Z,12.90
2023-02-14T08:26:09.882Z,15.17
2023-02-14T08:28:38.337Z,19.83
2023-02-14T08:31:06.779Z,15.53
2023-02-14T08:33:35.325Z,13.03
2023-02-14T08:36:03.582Z,12.37
2023-02-14T08:38:31.860Z,12.37
2023-02-14T08:41:06.696Z,12.07
2023-02-14T08:43:36.631Z,13.20
2023-02-14T08:46:05.253Z,13.17
2023-02-14T08:48:33.313Z,13.47
2023-02-14T08:51:05.741Z,14.47
2023-02-14T08:53:33.964Z,13.07
2023-02-14T08:56:15.666Z,12.97
2023-02-14T08:58:44.064Z,12.30
2023-02-14T09:01:18.164Z,12.50
2023-02-14T09:03:47.136Z,12.07
2023-02-14T09:06:18.111Z,12.30
2023-02-14T09:08:47.582Z,12.50
2023-02-14T09:11:22.125Z,12.43
2023-02-14T09:13:57.654Z,13.17
2023-02-14T09:16:26.749Z,13.73
2023-02-14T09:18:56.723Z,12.10
2023-02-14T09:21:30.214Z,12.53
2023-02-14T09:23:58.994Z,11.93
2023-02-14T09:26:28.832Z,11.93
2023-02-14T09:28:58.171Z,13.03
2023-02-14T09:31:26.960Z,12.70
2023-02-14T09:33:56.517Z,12.50
2023-02-14T09:36:28.257Z,12.13
2023-02-14T09:38:56.678Z,11.77
2023-02-14T09:41:30.814Z,12.87
2023-02-14T09:44:27.687Z,12.13
2023-02-14T09:47:02.343Z,13.17
2023-02-14T09:49:36.110Z,12.77
2023-02-14T09:52:08.153Z,13.70
2023-02-14T09:54:37.309Z,11.53
2023-02-14T09:57:20.047Z,14.20
2023-02-14T10:00:05.295Z,14.10
2023-02-14T10:02:51.909Z,13.03
2023-02-14T10:05:26.599Z,12.77
2023-02-14T10:07:57.552Z,13.93
2023-02-14T10:10:46.072Z,12.93
2023-02-14T10:13:39.121Z,13.60
2023-02-14T10:16:27.204Z,13.63
2023-02-14T10:19:04.519Z,14.10
2023-02-14T10:21:43.128Z,13.40
2023-02-14T10:24:22.790Z,15.30
2023-02-14T10:26:54.730Z,15.67
2023-02-14T10:29:22.900Z,14.40
2023-02-14T10:32:05.967Z,14.73
2023-02-14T10:34:39.807Z,15.90
2023-02-14T10:37:29.018Z,14.80
2023-02-14T10:40:26.793Z,12.87
2023-02-14T10:43:48.520Z,14.53
2023-02-14T10:46:35.512Z,13.57
2023-02-14T10:49:34.592Z,15.33
2023-02-14T10:52:42.175Z,14.67
2023-02-14T10:55:32.809Z,15.83
2023-02-14T10:58:05.259Z,15.87
2023-02-14T11:01:15.051Z,14.93
2023-02-14T11:04:04.053Z,15.60
2023-02-14T11:06:32.751Z,15.93
2023-02-14T11:09:01.078Z,15.13
2023-02-14T11:11:44.107Z,15.90
2023-02-14T11:14:32.244Z,14.47
2023-02-14T11:17:02.322Z,16.43
2023-02-14T11:19:37.495Z,14.43
2023-02-14T11:22:06.204Z,14.83
2023-02-14T11:24:41.669Z,16.17
2023-02-14T11:27:21.103Z,14.20
2023-02-14T11:29:53.086Z,14.20
2023-02-14T11:32:26.519Z,15.43
2023-02-14T11:35:09.200Z,13.70
2023-02-14T11:37:48.252Z,14.63
2023-02-14T11:40:38.815Z,13.57
2023-02-14T11:43:14.611Z,14.23
2023-02-14T11:45:45.904Z,14.33
2023-02-14T11:48:36.624Z,13.77
2023-02-14T11:51:16.404Z,12.77
2023-02-14T11:53:55.946Z,13.60
2023-02-14T11:56:25.632Z,13.10
2023-02-14T11:58:54.084Z,13.73
2023-02-14T12:01:42.610Z,14.07
2023-02-14T12:04:38.244Z,13.60
2023-02-14T12:07:18.148Z,11.70
2023-02-14T12:09:49.337Z,13.67
2023-02-14T12:12:26.431Z,13.10
2023-02-14T12:15:14.529Z,12.03
2023-02-14T12:17:46.783Z,12.73
2023-02-14T12:20:32.543Z,12.93
2023-02-14T12:23:16.887Z,11.80
2023-02-14T12:25:57.924Z,12.47
2023-02-14T12:28:45.417Z,11.33
2023-02-14T12:31:15.018Z,11.77
2023-02-14T12:33:45.704Z,11.40
2023-02-14T12:36:26.840Z,12.53
2023-02-14T12:39:41.443Z,11.77
2023-02-14T12:42:14.852Z,10.93
2023-02-14T12:45:06.088Z,11.23
2023-02-14T12:48:06.960Z,11.77
2023-02-14T12:51:01.405Z,11.77
2023-02-14T12:53:59.590Z,10.97
2023-02-14T12:56:43.134Z,12.00
2023-02-14T12:59:24.951Z,11.10
2023-02-14T13:02:11.553Z,11.87
2023-02-14T13:05:03.061Z,12.37
2023-02-14T13:08:08.159Z,11.20
2023-02-14T13:11:09.007Z,11.83
2023-02-14T13:14:10.472Z,11.97
2023-02-14T13:17:10.320Z,11.33
2023-02-14T13:20:49.836Z,11.13
2023-02-14T13:23:21.417Z,11.00
2023-02-14T13:25:59.380Z,11.77
2023-02-14T13:28:30.436Z,11.83
2023-02-14T13:31:01.807Z,11.80
2023-02-14T13:33:43.479Z,12.50
2023-02-14T13:36:14.699Z,13.90
2023-02-14T13:39:02.576Z,12.47
2023-02-14T13:41:31.351Z,12.00
2023-02-14T13:44:02.612Z,13.50
2023-02-14T13:46:33.792Z,12.33
2023-02-14T13:49:06.463Z,13.93
2023-02-14T13:51:49.760Z,13.03
2023-02-14T13:54:39.157Z,12.47
2023-02-14T13:57:37.813Z,13.23
2023-02-14T14:00:20.944Z,13.90
2023-02-14T14:02:58.050Z,13.43
2023-02-14T14:05:32.575Z,12.73
2023-02-14T14:08:21.506Z,13.17
2023-02-14T14:11:02.378Z,13.77
2023-02-14T14:13:42.574Z,11.97
2023-02-14T14:16:26.649Z,13.40
2023-02-14T14:19:22.960Z,12.80
2023-02-14T14:22:15.356Z,12.33
2023-02-14T14:24:58.131Z,12.87
2023-02-14T14:28:01.695Z,12.87
2023-02-14T14:30:33.525Z,16.20
2023-02-14T14:33:37.698Z,13.07
2023-02-14T14:36:11.428Z,13.10
2023-02-14T14:38:52.371Z,12.93
2023-02-14T14:41:21.797Z,13.73
2023-02-14T14:43:50.877Z,12.97
2023-02-14T14:46:19.435Z,13.67
2023-02-14T14:48:52.298Z,13.17
2023-02-14T14:51:33.715Z,12.80
2023-02-14T14:54:16.456Z,16.37
2023-02-14T14:56:59.266Z,13.20
2023-02-14T14:59:30.190Z,13.20
2023-02-14T15:01:58.409Z,12.73
2023-02-14T15:04:29.682Z,12.27
2023-02-14T15:07:18.942Z,13.77
2023-02-14T15:09:47.780Z,13.13
2023-02-14T15:12:39.568Z,12.83
2023-02-14T15:15:10.128Z,12.73
2023-02-14T15:17:39.085Z,13.43
2023-02-14T15:20:18.406Z,14.77
2023-02-14T15:22:50.361Z,15.57
2023-02-14T15:25:33.159Z,14.80
2023-02-14T15:28:02.128Z,13.00
2023-02-14T15:30:37.256Z,13.87
2023-02-14T15:33:07.901Z,14.33
2023-02-14T15:35:42.394Z,14.17
2023-02-14T15:38:13.162Z,13.47
2023-02-14T15:40:42.065Z,12.77
2023-02-14T15:43:19.201Z,17.37
2023-02-14T15:45:51.447Z,16.00
2023-02-14T15:48:34.940Z,21.83
2023-02-14T15:51:06.370Z,24.90
2023-02-14T15:53:55.972Z,19.27
2023-02-14T15:56:38.789Z,14.20
2023-02-14T15:59:24.106Z,13.70
2023-02-14T16:02:06.557Z,13.77
2023-02-14T16:04:36.704Z,13.67
2023-02-14T16:07:28.119Z,14.10
2023-02-14T16:10:59.535Z,14.07
2023-02-14T16:13:48.098Z,14.53
2023-02-14T16:16:17.593Z,14.07
2023-02-14T16:18:56.641Z,13.60
2023-02-14T16:21:30.460Z,14.80
2023-02-14T16:24:07.756Z,13.87
2023-02-14T16:26:39.775Z,13.33
2023-02-14T16:29:14.842Z,14.03
2023-02-14T16:34:42.052Z,14.23
2023-02-14T16:37:23.424Z,15.10
2023-02-14T16:39:54.490Z,14.03
2023-02-14T16:42:23.138Z,13.80
2023-02-14T16:44:52.645Z,14.33
2023-02-14T16:47:22.802Z,14.93
2023-02-14T16:49:53.215Z,14.93
2023-02-14T16:52:24.965Z,15.83
2023-02-14T16:54:54.419Z,16.20
2023-02-14T16:57:39.662Z,15.03
2023-02-14T17:00:09.555Z,15.10
2023-02-14T17:02:38.336Z,15.30
2023-02-14T17:05:07.227Z,15.17
2023-02-14T17:07:35.959Z,15.90
2023-02-14T17:10:11.851Z,16.33
2023-02-14T17:12:43.390Z,17.13
2023-02-14T17:15:18.775Z,17.10
2023-02-14T17:17:48.895Z,14.87
2023-02-14T17:20:19.968Z,17.67
2023-02-14T17:22:48.724Z,17.83
2023-02-14T17:25:17.383Z,17.00
2023-02-14T17:27:46.362Z,18.37
2023-02-14T17:30:15.863Z,17.93
2023-02-14T17:32:44.941Z,21.87
2023-02-14T17:35:14.542Z,19.40
2023-02-14T17:37:43.095Z,17.90
2023-02-14T17:40:12.706Z,17.23
2023-02-14T17:42:41.235Z,20.97
2023-02-14T17:45:11.994Z,21.47
2023-02-14T17:47:43.389Z,18.20
2023-02-14T17:50:13.118Z,18.87
2023-02-14T17:52:41.420Z,17.70
2023-02-14T17:55:10.413Z,18.20
2023-02-14T17:57:41.040Z,18.70
2023-02-14T18:00:11.855Z,19.37
2023-02-14T18:02:40.283Z,19.77
2023-02-14T18:05:09.302Z,19.17
2023-02-14T18:07:38.206Z,18.13
2023-02-14T18:10:07.465Z,19.77
2023-02-14T18:12:35.940Z,19.93
2023-02-14T18:15:05.578Z,19.10
2023-02-14T18:17:34.003Z,19.03
2023-02-14T18:20:03.320Z,19.10
2023-02-14T18:22:32.417Z,21.20
2023-02-14T18:25:00.621Z,21.27
2023-02-14T18:27:28.748Z,21.57
2023-02-14T18:29:56.984Z,20.60
2023-02-14T18:32:25.505Z,20.10
2023-02-14T18:34:55.721Z,21.17
2023-02-14T18:37:24.238Z,20.07
2023-02-14T18:39:52.713Z,23.40
2023-02-14T18:42:21.273Z,22.60
2023-02-14T18:44:52.698Z,22.03
2023-02-14T18:47:21.335Z,22.50
2023-02-14T18:49:49.750Z,21.87
2023-02-14T18:52:18.176Z,23.37
2023-02-14T18:54:46.632Z,22.53
2023-02-14T18:57:15.117Z,21.63
2023-02-14T18:59:43.613Z,23.77
2023-02-14T19:02:12.112Z,24.43
2023-02-14T19:04:40.741Z,22.23
2023-02-14T19:07:09.375Z,23.83
2023-02-14T19:09:40.215Z,22.30
2023-02-14T19:12:09.144Z,21.67
2023-02-14T19:14:38.393Z,22.40
2023-02-14T19:17:07.220Z,24.10
2023-02-14T19:19:36.018Z,26.57
2023-02-14T19:22:04.480Z,26.90
2023-02-14T19:24:32.905Z,26.43
2023-02-14T19:27:01.423Z,29.37
2023-02-14T19:29:30.033Z,29.10
2023-02-14T19:31:59.394Z,28.57
2023-02-14T19:34:31.226Z,26.07
2023-02-14T19:37:02.421Z,25.20
2023-02-14T19:39:32.187Z,23.90
2023-02-14T19:42:01.249Z,23.87
2023-02-14T19:44:31.151Z,23.87
2023-02-14T19:47:04.239Z,23.53
2023-02-14T19:49:36.318Z,23.20
2023-02-14T19:52:09.467Z,25.87
2023-02-14T19:54:42.794Z,23.97
2023-02-14T19:57:15.084Z,23.87
2023-02-14T19:59:43.779Z,25.43
2023-02-14T20:02:17.375Z,26.00
2023-02-14T20:04:45.888Z,26.57
2023-02-14T20:07:14.327Z,24.50
2023-02-14T20:09:42.987Z,26.33
2023-02-14T20:12:11.538Z,24.67
2023-02-14T20:14:50.892Z,23.47
2023-02-14T20:17:20.519Z,24.03
2023-02-14T20:19:49.327Z,24.07
2023-02-14T20:22:17.855Z,24.23
2023-02-14T20:24:46.373Z,25.83
2023-02-14T20:27:14.840Z,25.23
2023-02-14T20:29:45.000Z,24.87
2023-02-14T20:32:16.900Z,27.27
2023-02-14T20:34:45.770Z,26.07
2023-02-14T20:37:14.637Z,26.47
2023-02-14T20:39:43.103Z,24.83
2023-02-14T20:42:11.772Z,24.97
2023-02-14T20:44:41.515Z,24.80
2023-02-14T20:47:11.046Z,26.23
2023-02-14T20:49:40.000Z,28.07
2023-02-14T20:52:08.478Z,26.13
2023-02-14T20:54:40.380Z,25.80
2023-02-14T20:57:08.992Z,25.50
2023-02-14T20:59:37.731Z,26.53
2023-02-14T21:02:07.558Z,26.43
2023-02-14T21:04:36.099Z,26.00
2023-02-14T21:07:08.849Z,25.23
2023-02-14T21:09:38.840Z,26.37
2023-02-14T21:12:10.152Z,25.53
2023-02-14T21:14:38.675Z,25.17
2023-02-14T21:17:07.141Z,25.13
2023-02-14T21:19:35.660Z,25.37
2023-02-14T21:22:04.277Z,25.57
2023-02-14T21:24:32.925Z,24.77
2023-02-14T21:27:01.756Z,25.50
2023-02-14T21:29:30.321Z,24.77
2023-02-14T21:32:00.064Z,25.27
2023-02-14T21:34:30.189Z,26.30
2023-02-14T21:36:58.933Z,25.83
2023-02-14T21:39:28.186Z,25.43
2023-02-14T21:41:56.814Z,25.90
2023-02-14T21:44:39.196Z,24.57
2023-02-14T21:47:07.738Z,26.57
2023-02-14T21:49:53.715Z,25.67
2023-02-14T21:52:22.600Z,25.50
2023-02-14T21:54:51.164Z,24.43
2023-02-14T21:57:19.731Z,24.97
2023-02-14T21:59:48.284Z,25.70
2023-02-14T22:02:16.857Z,26.30
2023-02-14T22:04:45.758Z,25.60
2023-02-14T22:07:14.439Z,26.07
2023-02-14T22:09:42.931Z,25.97
2023-02-14T22:12:11.409Z,27.40
2023-02-14T22:14:39.895Z,27.53
2023-02-14T22:17:09.089Z,25.00
2023-02-14T22:19:37.578Z,25.97
2023-02-14T22:22:06.099Z,26.60
2023-02-14T22:24:34.556Z,24.97
2023-02-14T22:27:02.935Z,26.90
2023-02-14T22:29:31.404Z,27.93
2023-02-14T22:31:59.940Z,26.63
2023-02-14T22:34:28.425Z,26.50
2023-02-14T22:36:56.893Z,26.47
2023-02-14T22:39:25.412Z,26.77
2023-02-14T22:41:53.929Z,26.47
2023-02-14T22:44:22.534Z,26.33
2023-02-14T22:46:51.130Z,25.73
2023-02-14T22:49:19.670Z,25.47
2023-02-14T22:51:48.305Z,27.20
2023-02-14T22:54:17.715Z,26.50
2023-02-14T22:56:49.147Z,26.80
2023-02-14T22:59:24.092Z,25.27
2023-02-14T23:01:54.189Z,27.10
2023-02-14T23:04:25.036Z,29.87
2023-02-14T23:06:54.366Z,28.97
2023-02-14T23:09:24.801Z,26.97
2023-02-14T23:11:53.389Z,26.23
2023-02-14T23:14:39.822Z,29.83
2023-02-14T23:17:26.204Z,29.10
2023-02-14T23:20:12.169Z,31.10
2023-02-14T23:22:42.226Z,29.53
2023-02-14T23:25:13.077Z,29.60
2023-02-14T23:27:45.032Z,27.93
2023-02-14T23:30:18.264Z,26.40
2023-02-14T23:32:46.975Z,26.53
2023-02-14T23:35:15.728Z,28.23
2023-02-14T23:37:44.197Z,29.30
2023-02-14T23:40:13.045Z,27.70
2023-02-14T23:42:41.673Z,28.23
2023-02-14T23:45:26.864Z,26.73
2023-02-14T23:47:55.502Z,27.73
2023-02-14T23:50:23.945Z,26.20
2023-02-14T23:52:52.480Z,27.03
2023-02-14T23:55:20.914Z,26.00
2023-02-14T23:57:49.405Z,25.80
